Myrtle Beach, South Carolina
Current Conditions -  °F | °C
As of 5:45 PM on Wednesday 22 Oct 2014 (Local Time) from KMYR Reporting Station
Few Clouds Few Clouds  
Wind Chill: 66°   Ceiling: Unl
Heat Index: 66°   Visibility: 10mi
Dew Point: 43°   Wind: 9mph
Humidity: 43%   Direction: 320°NW
Pressure: 29.98"   Gusts: NA
Location:  33.69°N, 78.88°W
Report Text: KMYR 222145Z 32008KT 10SM FEW050 19/06 A2998
Loading
Personal Weather Stations






























Interactive Weather Map New forecast layout! Learn more

10-Day Weather Forecast

Advertisements
Track Severe Weather on mobile